sensor_id;sensor_type;location;lat;lon;timestamp;pressure;altitude;pressure_sealevel;temperature;humidity
72438;BME280;60444;43.534;-5.674;2023-04-03T00:01:23;102692.41;;;13.31;100.00
72438;BME280;60444;43.534;-5.674;2023-04-03T00:03:48;102687.81;;;13.33;100.00
72438;BME280;60444;43.534;-5.674;2023-04-03T00:06:14;102698.53;;;13.38;100.00
72438;BME280;60444;43.534;-5.674;2023-04-03T00:08:40;102697.63;;;13.39;100.00
72438;BME280;60444;43.534;-5.674;2023-04-03T00:11:06;102669.88;;;13.28;100.00
72438;BME280;60444;43.534;-5.674;2023-04-03T00:13:33;102678.53;;;13.40;100.00
72438;BME280;60444;43.534;-5.674;2023-04-03T00:15:59;102687.59;;;13.41;100.00
72438;BME280;60444;43.534;-5.674;2023-04-03T00:18:29;102672.31;;;13.37;100.00
72438;BME280;60444;43.534;-5.674;2023-04-03T00:20:54;102668.75;;;13.35;100.00
72438;BME280;60444;43.534;-5.674;2023-04-03T00:23:20;102678.44;;;13.43;100.00
72438;BME280;60444;43.534;-5.674;2023-04-03T00:25:46;102676.59;;;13.44;100.00
72438;BME280;60444;43.534;-5.674;2023-04-03T00:28:11;102656.91;;;13.36;100.00
72438;BME280;60444;43.534;-5.674;2023-04-03T00:30:37;102663.13;;;13.41;100.00
72438;BME280;60444;43.534;-5.674;2023-04-03T00:33:02;102655.00;;;13.39;100.00
72438;BME280;60444;43.534;-5.674;2023-04-03T00:35:28;102659.31;;;13.46;100.00
72438;BME280;60444;43.534;-5.674;2023-04-03T00:37:54;102652.44;;;13.35;100.00
72438;BME280;60444;43.534;-5.674;2023-04-03T00:40:23;102634.44;;;13.31;100.00
72438;BME280;60444;43.534;-5.674;2023-04-03T00:42:58;102634.78;;;13.20;99.86
72438;BME280;60444;43.534;-5.674;2023-04-03T00:45:28;102646.03;;;13.37;100.00
72438;BME280;60444;43.534;-5.674;2023-04-03T00:47:55;102634.47;;;13.29;100.00
72438;BME280;60444;43.534;-5.674;2023-04-03T00:50:21;102621.97;;;13.24;100.00
72438;BME280;60444;43.534;-5.674;2023-04-03T00:52:47;102621.06;;;13.25;100.00
72438;BME280;60444;43.534;-5.674;2023-04-03T00:55:15;102632.44;;;13.36;100.00
72438;BME280;60444;43.534;-5.674;2023-04-03T00:57:42;102610.31;;;13.20;100.00
72438;BME280;60444;43.534;-5.674;2023-04-03T01:00:11;102611.00;;;13.27;100.00
72438;BME280;60444;43.534;-5.674;2023-04-03T01:02:37;102605.66;;;13.24;100.00
72438;BME280;60444;43.534;-5.674;2023-04-03T01:05:06;102615.63;;;13.25;100.00
72438;BME280;60444;43.534;-5.674;2023-04-03T01:07:32;102617.25;;;13.30;100.00
72438;BME280;60444;43.534;-5.674;2023-04-03T01:10:02;102599.63;;;13.14;100.00
72438;BME280;60444;43.534;-5.674;2023-04-03T01:12:34;102611.22;;;13.21;100.00
72438;BME280;60444;43.534;-5.674;2023-04-03T01:15:23;102604.81;;;13.22;100.00
72438;BME280;60444;43.534;-5.674;2023-04-03T01:17:56;102598.53;;;13.21;100.00
72438;BME280;60444;43.534;-5.674;2023-04-03T01:25:36;102575.16;;;13.16;100.00
72438;BME280;60444;43.534;-5.674;2023-04-03T01:28:04;102574.09;;;13.20;100.00
72438;BME280;60444;43.534;-5.674;2023-04-03T01:30:39;102570.56;;;13.16;100.00
72438;BME280;60444;43.534;-5.674;2023-04-03T01:33:06;102541.28;;;12.97;100.00
72438;BME280;60444;43.534;-5.674;2023-04-03T01:35:32;102563.63;;;13.08;100.00
72438;BME280;60444;43.534;-5.674;2023-04-03T01:37:57;102566.34;;;13.08;100.00
72438;BME280;60444;43.534;-5.674;2023-04-03T01:40:23;102559.13;;;13.07;100.00
72438;BME280;60444;43.534;-5.674;2023-04-03T01:42:49;102553.69;;;13.07;100.00
72438;BME280;60444;43.534;-5.674;2023-04-03T01:45:14;102559.94;;;13.09;100.00
72438;BME280;60444;43.534;-5.674;2023-04-03T01:47:40;102566.22;;;13.11;100.00
72438;BME280;60444;43.534;-5.674;2023-04-03T01:50:06;102542.00;;;13.05;100.00
72438;BME280;60444;43.534;-5.674;2023-04-03T01:52:31;102532.09;;;13.02;100.00
72438;BME280;60444;43.534;-5.674;2023-04-03T01:54:57;102534.00;;;12.99;100.00
72438;BME280;60444;43.534;-5.674;2023-04-03T01:57:22;102545.56;;;13.07;100.00
72438;BME280;60444;43.534;-5.674;2023-04-03T01:59:47;102544.50;;;13.11;100.00
72438;BME280;60444;43.534;-5.674;2023-04-03T02:02:13;102547.38;;;13.06;100.00
72438;BME280;60444;43.534;-5.674;2023-04-03T02:04:40;102533.19;;;12.95;100.00
72438;BME280;60444;43.534;-5.674;2023-04-03T02:07:06;102544.19;;;12.91;100.00
72438;BME280;60444;43.534;-5.674;2023-04-03T02:09:31;102544.06;;;12.95;100.00
72438;BME280;60444;43.534;-5.674;2023-04-03T02:11:57;102541.19;;;13.00;100.00
72438;BME280;60444;43.534;-5.674;2023-04-03T02:14:25;102541.19;;;13.00;100.00
72438;BME280;60444;43.534;-5.674;2023-04-03T02:16:52;102517.19;;;12.86;100.00
72438;BME280;60444;43.534;-5.674;2023-04-03T02:19:18;102500.94;;;12.85;100.00
72438;BME280;60444;43.534;-5.674;2023-04-03T02:21:43;102508.13;;;12.86;100.00
72438;BME280;60444;43.534;-5.674;2023-04-03T02:24:09;102519.97;;;12.85;100.00
72438;BME280;60444;43.534;-5.674;2023-04-03T02:26:34;102508.25;;;12.83;100.00
72438;BME280;60444;43.534;-5.674;2023-04-03T02:29:00;102509.94;;;12.87;100.00
72438;BME280;60444;43.534;-5.674;2023-04-03T02:31:25;102482.63;;;12.64;100.00
72438;BME280;60444;43.534;-5.674;2023-04-03T02:33:51;102509.19;;;12.82;100.00
72438;BME280;60444;43.534;-5.674;2023-04-03T02:36:17;102481.09;;;12.53;100.00
72438;BME280;60444;43.534;-5.674;2023-04-03T02:38:43;102497.94;;;12.65;100.00
72438;BME280;60444;43.534;-5.674;2023-04-03T02:41:10;102504.06;;;12.71;100.00
72438;BME280;60444;43.534;-5.674;2023-04-03T02:43:37;102491.41;;;12.72;100.00
72438;BME280;60444;43.534;-5.674;2023-04-03T02:46:02;102471.75;;;12.64;100.00
72438;BME280;60444;43.534;-5.674;2023-04-03T02:48:28;102485.13;;;12.70;100.00
72438;BME280;60444;43.534;-5.674;2023-04-03T02:50:54;102481.56;;;12.68;100.00
72438;BME280;60444;43.534;-5.674;2023-04-03T02:53:20;102458.41;;;12.56;100.00
72438;BME280;60444;43.534;-5.674;2023-04-03T02:55:45;102468.47;;;12.52;100.00
72438;BME280;60444;43.534;-5.674;2023-04-03T02:58:11;102446.25;;;12.40;100.00
72438;BME280;60444;43.534;-5.674;2023-04-03T03:00:37;102459.34;;;12.55;100.00
72438;BME280;60444;43.534;-5.674;2023-04-03T03:03:03;102461.06;;;12.58;100.00
72438;BME280;60444;43.534;-5.674;2023-04-03T03:05:28;102467.13;;;12.66;100.00
72438;BME280;60444;43.534;-5.674;2023-04-03T03:07:54;102469.91;;;12.64;100.00
72438;BME280;60444;43.534;-5.674;2023-04-03T03:10:21;102459.88;;;12.66;100.00
72438;BME280;60444;43.534;-5.674;2023-04-03T03:12:47;102457.13;;;12.68;100.00
72438;BME280;60444;43.534;-5.674;2023-04-03T03:15:12;102449.19;;;12.62;100.00
72438;BME280;60444;43.534;-5.674;2023-04-03T03:17:38;102456.38;;;12.63;100.00
72438;BME280;60444;43.534;-5.674;2023-04-03T03:20:05;102442.31;;;12.50;100.00
72438;BME280;60444;43.534;-5.674;2023-04-03T03:22:31;102452.19;;;12.52;100.00
72438;BME280;60444;43.534;-5.674;2023-04-03T03:24:57;102436.13;;;12.45;100.00
72438;BME280;60444;43.534;-5.674;2023-04-03T03:27:23;102425.28;;;12.45;100.00
72438;BME280;60444;43.534;-5.674;2023-04-03T03:29:49;102436.75;;;12.55;100.00
72438;BME280;60444;43.534;-5.674;2023-04-03T03:32:14;102418.97;;;12.44;100.00
72438;BME280;60444;43.534;-5.674;2023-04-03T03:34:40;102423.66;;;12.39;100.00
72438;BME280;60444;43.534;-5.674;2023-04-03T03:37:05;102433.47;;;12.43;100.00
72438;BME280;60444;43.534;-5.674;2023-04-03T03:39:31;102426.34;;;12.39;100.00
72438;BME280;60444;43.534;-5.674;2023-04-03T03:41:56;102404.97;;;12.29;100.00
72438;BME280;60444;43.534;-5.674;2023-04-03T03:44:22;102425.22;;;12.46;100.00
72438;BME280;60444;43.534;-5.674;2023-04-03T03:46:47;102414.75;;;12.34;100.00
72438;BME280;60444;43.534;-5.674;2023-04-03T03:49:13;102422.69;;;12.40;100.00
72438;BME280;60444;43.534;-5.674;2023-04-03T03:51:39;102426.25;;;12.42;100.00
72438;BME280;60444;43.534;-5.674;2023-04-03T03:54:05;102404.09;;;12.28;100.00
72438;BME280;60444;43.534;-5.674;2023-04-03T03:56:31;102423.69;;;12.38;100.00
72438;BME280;60444;43.534;-5.674;2023-04-03T03:58:57;102419.97;;;12.40;100.00
72438;BME280;60444;43.534;-5.674;2023-04-03T04:01:23;102418.28;;;12.38;100.00
72438;BME280;60444;43.534;-5.674;2023-04-03T04:03:49;102406.69;;;12.31;100.00
72438;BME280;60444;43.534;-5.674;2023-04-03T04:06:15;102411.94;;;12.37;100.00
72438;BME280;60444;43.534;-5.674;2023-04-03T04:08:41;102405.66;;;12.35;100.00
72438;BME280;60444;43.534;-5.674;2023-04-03T04:11:07;102381.63;;;12.23;100.00
72438;BME280;60444;43.534;-5.674;2023-04-03T04:13:33;102405.66;;;12.35;100.00
72438;BME280;60444;43.534;-5.674;2023-04-03T04:15:59;102401.13;;;12.36;100.00
72438;BME280;60444;43.534;-5.674;2023-04-03T04:18:24;102408.38;;;12.35;100.00
72438;BME280;60444;43.534;-5.674;2023-04-03T04:20:50;102395.81;;;12.33;100.00
72438;BME280;60444;43.534;-5.674;2023-04-03T04:23:17;102393.97;;;12.33;100.00
72438;BME280;60444;43.534;-5.674;2023-04-03T04:25:48;102390.56;;;12.27;100.00
72438;BME280;60444;43.534;-5.674;2023-04-03T04:28:15;102358.44;;;12.13;100.00
72438;BME280;60444;43.534;-5.674;2023-04-03T04:30:40;102396.97;;;12.24;100.00
72438;BME280;60444;43.534;-5.674;2023-04-03T04:33:06;102381.81;;;12.17;100.00
72438;BME280;60444;43.534;-5.674;2023-04-03T04:35:32;102356.00;;;12.04;100.00
72438;BME280;60444;43.534;-5.674;2023-04-03T04:37:58;102370.97;;;12.17;100.00
72438;BME280;60444;43.534;-5.674;2023-04-03T04:40:23;102369.09;;;12.19;100.00
72438;BME280;60444;43.534;-5.674;2023-04-03T04:42:49;102372.72;;;12.20;100.00
72438;BME280;60444;43.534;-5.674;2023-04-03T04:45:14;102372.78;;;12.17;100.00
72438;BME280;60444;43.534;-5.674;2023-04-03T04:47:41;102371.91;;;12.16;100.00
72438;BME280;60444;43.534;-5.674;2023-04-03T04:50:07;102364.84;;;12.11;100.00
72438;BME280;60444;43.534;-5.674;2023-04-03T04:52:32;102377.25;;;12.19;100.00
72438;BME280;60444;43.534;-5.674;2023-04-03T04:54:58;102370.06;;;12.18;100.00
72438;BME280;60444;43.534;-5.674;2023-04-03T04:57:23;102368.31;;;12.16;100.00
72438;BME280;60444;43.534;-5.674;2023-04-03T04:59:49;102353.06;;;12.12;100.00
72438;BME280;60444;43.534;-5.674;2023-04-03T05:02:14;102356.66;;;12.12;100.00
72438;BME280;60444;43.534;-5.674;2023-04-03T05:04:40;102360.16;;;12.16;100.00
72438;BME280;60444;43.534;-5.674;2023-04-03T05:07:05;102346.00;;;12.06;100.00
72438;BME280;60444;43.534;-5.674;2023-04-03T05:09:31;102352.16;;;12.11;100.00
72438;BME280;60444;43.534;-5.674;2023-04-03T05:11:56;102354.78;;;12.14;100.00
72438;BME280;60444;43.534;-5.674;2023-04-03T05:14:22;102329.81;;;12.03;100.00
72438;BME280;60444;43.534;-5.674;2023-04-03T05:16:48;102346.84;;;12.08;100.00
72438;BME280;60444;43.534;-5.674;2023-04-03T05:19:18;102322.72;;;11.99;100.00
72438;BME280;60444;43.534;-5.674;2023-04-03T05:21:44;102337.81;;;12.08;100.00
72438;BME280;60444;43.534;-5.674;2023-04-03T05:24:09;102344.91;;;12.12;100.00
72438;BME280;60444;43.534;-5.674;2023-04-03T05:26:35;102345.81;;;12.12;100.00
72438;BME280;60444;43.534;-5.674;2023-04-03T05:29:00;102345.06;;;12.07;100.00
72438;BME280;60444;43.534;-5.674;2023-04-03T05:31:26;102329.09;;;11.98;100.00
72438;BME280;60444;43.534;-5.674;2023-04-03T05:33:54;102344.06;;;12.10;100.00
72438;BME280;60444;43.534;-5.674;2023-04-03T05:36:21;102332.34;;;12.09;100.00
72438;BME280;60444;43.534;-5.674;2023-04-03T05:38:47;102335.06;;;12.09;100.00
72438;BME280;60444;43.534;-5.674;2023-04-03T05:41:13;102348.63;;;12.09;100.00
72438;BME280;60444;43.534;-5.674;2023-04-03T05:43:39;102335.06;;;12.09;100.00
72438;BME280;60444;43.534;-5.674;2023-04-03T05:46:16;102341.41;;;12.08;100.00
72438;BME280;60444;43.534;-5.674;2023-04-03T05:48:42;102313.94;;;11.91;100.00
72438;BME280;60444;43.534;-5.674;2023-04-03T05:51:15;102337.84;;;12.06;100.00
72438;BME280;60444;43.534;-5.674;2023-04-03T05:53:43;102327.00;;;12.06;100.00
72438;BME280;60444;43.534;-5.674;2023-04-03T05:56:08;102330.72;;;12.04;100.00
72438;BME280;60444;43.534;-5.674;2023-04-03T05:58:34;102329.81;;;12.03;100.00
72438;BME280;60444;43.534;-5.674;2023-04-03T06:01:00;102325.41;;;11.99;100.00
72438;BME280;60444;43.534;-5.674;2023-04-03T06:03:26;102312.19;;;11.89;100.00
72438;BME280;60444;43.534;-5.674;2023-04-03T06:05:52;102337.16;;;12.00;100.00
72438;BME280;60444;43.534;-5.674;2023-04-03T06:08:17;102337.16;;;12.00;100.00
72438;BME280;60444;43.534;-5.674;2023-04-03T06:10:44;102337.16;;;12.00;100.00
72438;BME280;60444;43.534;-5.674;2023-04-03T06:13:10;102328.28;;;11.95;100.00
72438;BME280;60444;43.534;-5.674;2023-04-03T06:15:36;102308.78;;;11.82;100.00
72438;BME280;60444;43.534;-5.674;2023-04-03T06:18:02;102330.00;;;11.97;100.00
72438;BME280;60444;43.534;-5.674;2023-04-03T06:20:28;102332.72;;;11.97;100.00
72438;BME280;60444;43.534;-5.674;2023-04-03T06:22:53;102325.59;;;11.93;100.00
72438;BME280;60444;43.534;-5.674;2023-04-03T06:25:19;102328.22;;;11.96;100.00
72438;BME280;60444;43.534;-5.674;2023-04-03T06:27:45;102300.56;;;11.85;100.00
72438;BME280;60444;43.534;-5.674;2023-04-03T06:30:11;102331.03;;;11.93;100.00
72438;BME280;60444;43.534;-5.674;2023-04-03T06:32:37;102329.16;;;11.95;100.00
72438;BME280;60444;43.534;-5.674;2023-04-03T06:35:04;102324.69;;;11.94;100.00
72438;BME280;60444;43.534;-5.674;2023-04-03T06:37:30;102324.72;;;11.93;100.00
72438;BME280;60444;43.534;-5.674;2023-04-03T06:39:56;102328.06;;;12.01;100.00
72438;BME280;60444;43.534;-5.674;2023-04-03T06:42:22;102320.09;;;11.96;100.00
72438;BME280;60444;43.534;-5.674;2023-04-03T06:44:48;102310.31;;;11.91;100.00
72438;BME280;60444;43.534;-5.674;2023-04-03T06:47:14;102308.47;;;11.93;100.00
72438;BME280;60444;43.534;-5.674;2023-04-03T06:49:44;102335.19;;;12.05;100.00
72438;BME280;60444;43.534;-5.674;2023-04-03T06:52:10;102310.03;;;12.00;100.00
72438;BME280;60444;43.534;-5.674;2023-04-03T06:54:37;102319.88;;;12.04;100.00
72438;BME280;60444;43.534;-5.674;2023-04-03T06:57:03;102326.94;;;12.08;100.00
72438;BME280;60444;43.534;-5.674;2023-04-03T06:59:29;102313.31;;;12.11;100.00
72438;BME280;60444;43.534;-5.674;2023-04-03T07:01:54;102313.22;;;12.14;100.00
72438;BME280;60444;43.534;-5.674;2023-04-03T07:04:20;102315.00;;;12.15;100.00
72438;BME280;60444;43.534;-5.674;2023-04-03T07:06:47;102295.25;;;12.10;100.00
72438;BME280;60444;43.534;-5.674;2023-04-03T07:09:13;102309.47;;;12.18;100.00
72438;BME280;60444;43.534;-5.674;2023-04-03T07:11:39;102294.13;;;12.17;100.00
72438;BME280;60444;43.534;-5.674;2023-04-03T07:14:05;102298.56;;;12.19;100.00
72438;BME280;60444;43.534;-5.674;2023-04-03T07:16:33;102284.31;;;12.13;100.00
72438;BME280;60444;43.534;-5.674;2023-04-03T07:18:58;102280.56;;;12.17;100.00
72438;BME280;60444;43.534;-5.674;2023-04-03T07:21:24;102298.28;;;12.28;100.00
72438;BME280;60444;43.534;-5.674;2023-04-03T07:23:49;102291.88;;;12.31;100.00
72438;BME280;60444;43.534;-5.674;2023-04-03T07:26:15;102294.53;;;12.32;100.00
72438;BME280;60444;43.534;-5.674;2023-04-03T07:28:41;102285.38;;;12.36;100.00
72438;BME280;60444;43.534;-5.674;2023-04-03T07:31:10;102277.25;;;12.35;100.00
72438;BME280;60444;43.534;-5.674;2023-04-03T07:33:37;102282.53;;;12.39;100.00
72438;BME280;60444;43.534;-5.674;2023-04-03T07:36:04;102276.16;;;12.40;100.00
72438;BME280;60444;43.534;-5.674;2023-04-03T07:38:29;102279.63;;;12.45;100.00
72438;BME280;60444;43.534;-5.674;2023-04-03T07:40:55;102275.00;;;12.47;100.00
72438;BME280;60444;43.534;-5.674;2023-04-03T07:43:21;102266.13;;;12.42;100.00
72438;BME280;60444;43.534;-5.674;2023-04-03T07:45:48;102268.50;;;12.53;100.00
72438;BME280;60444;43.534;-5.674;2023-04-03T07:48:26;102263.03;;;12.55;100.00
72438;BME280;60444;43.534;-5.674;2023-04-03T07:50:52;102249.78;;;12.45;100.00
72438;BME280;60444;43.534;-5.674;2023-04-03T07:53:18;102246.09;;;12.46;100.00
72438;BME280;60444;43.534;-5.674;2023-04-03T07:55:46;102272.75;;;12.62;100.00
72438;BME280;60444;43.534;-5.674;2023-04-03T07:58:14;102245.28;;;12.44;100.00
72438;BME280;60444;43.534;-5.674;2023-04-03T08:00:41;102253.41;;;12.44;100.00
72438;BME280;60444;43.534;-5.674;2023-04-03T08:03:09;102247.97;;;12.44;100.00
72438;BME280;60444;43.534;-5.674;2023-04-03T08:05:40;102237.56;;;12.32;100.00
72438;BME280;60444;43.534;-5.674;2023-04-03T08:08:06;102260.31;;;12.55;100.00
72438;BME280;60444;43.534;-5.674;2023-04-03T08:10:33;102259.25;;;12.59;100.00
72438;BME280;60444;43.534;-5.674;2023-04-03T08:12:59;102260.03;;;12.62;100.00
72438;BME280;60444;43.534;-5.674;2023-04-03T08:15:25;102231.69;;;12.44;100.00
72438;BME280;60444;43.534;-5.674;2023-04-03T08:17:50;102243.97;;;12.56;100.00
72438;BME280;60444;43.534;-5.674;2023-04-03T08:20:17;102248.41;;;12.59;100.00
72438;BME280;60444;43.534;-5.674;2023-04-03T08:22:42;102248.19;;;12.65;100.00
72438;BME280;60444;43.534;-5.674;2023-04-03T08:25:08;102215.81;;;12.59;100.00
72438;BME280;60444;43.534;-5.674;2023-04-03T08:27:34;102213.22;;;12.56;100.00
72438;BME280;60444;43.534;-5.674;2023-04-03T08:30:00;102228.84;;;12.49;96.80
72438;BME280;60444;43.534;-5.674;2023-04-03T08:32:26;102228.22;;;12.67;100.00
72438;BME280;60444;43.534;-5.674;2023-04-03T08:34:52;102225.25;;;12.73;100.00
72438;BME280;60444;43.534;-5.674;2023-04-03T08:37:18;102227.78;;;12.79;100.00
72438;BME280;60444;43.534;-5.674;2023-04-03T08:39:44;102218.72;;;12.79;100.00
72438;BME280;60444;43.534;-5.674;2023-04-03T08:45:55;102220.97;;;12.92;100.00
72438;BME280;60444;43.534;-5.674;2023-04-03T08:48:35;102207.25;;;12.95;100.00
72438;BME280;60444;43.534;-5.674;2023-04-03T08:51:13;102176.94;;;12.83;100.00
72438;BME280;60444;43.534;-5.674;2023-04-03T08:54:01;102171.31;;;12.89;100.00
72438;BME280;60444;43.534;-5.674;2023-04-03T08:56:30;102172.84;;;12.96;100.00
72438;BME280;60444;43.534;-5.674;2023-04-03T08:58:58;102176.19;;;13.04;100.00
72438;BME280;60444;43.534;-5.674;2023-04-03T09:01:36;102183.66;;;12.97;94.66
72438;BME280;60444;43.534;-5.674;2023-04-03T09:04:10;102164.69;;;12.96;95.42
72438;BME280;60444;43.534;-5.674;2023-04-03T09:06:38;102167.41;;;12.96;93.27
72438;BME280;60444;43.534;-5.674;2023-04-03T09:12:04;102173.47;;;13.04;88.33
72438;BME280;60444;43.534;-5.674;2023-04-03T09:17:31;102159.88;;;13.04;87.27
72438;BME280;60444;43.534;-5.674;2023-04-03T09:22:54;102140.00;;;13.03;89.72
72438;BME280;60444;43.534;-5.674;2023-04-03T09:25:33;102142.94;;;13.20;100.00
72438;BME280;60444;43.534;-5.674;2023-04-03T09:28:01;102132.16;;;13.19;100.00
72438;BME280;60444;43.534;-5.674;2023-04-03T09:30:28;102137.03;;;13.32;100.00
72438;BME280;60444;43.534;-5.674;2023-04-03T09:32:56;102127.25;;;13.28;100.00
72438;BME280;60444;43.534;-5.674;2023-04-03T09:35:27;102115.25;;;13.34;100.00
72438;BME280;60444;43.534;-5.674;2023-04-03T09:40:40;102114.66;;;13.26;85.66
72438;BME280;60444;43.534;-5.674;2023-04-03T09:43:28;102114.81;;;13.44;100.00
72438;BME280;60444;43.534;-5.674;2023-04-03T09:45:55;102123.81;;;13.46;98.18
72438;BME280;60444;43.534;-5.674;2023-04-03T09:48:24;102101.84;;;13.51;100.00
72438;BME280;60444;43.534;-5.674;2023-04-03T09:55:55;102106.78;;;13.63;100.00
72438;BME280;60444;43.534;-5.674;2023-04-03T09:58:52;102108.38;;;13.69;100.00
72438;BME280;60444;43.534;-5.674;2023-04-03T10:01:39;102086.50;;;13.72;100.00
72438;BME280;60444;43.534;-5.674;2023-04-03T10:06:37;102066.66;;;13.70;100.00
72438;BME280;60444;43.534;-5.674;2023-04-03T10:09:20;102078.03;;;13.79;100.00
72438;BME280;60444;43.534;-5.674;2023-04-03T10:14:36;102054.25;;;13.84;100.00
72438;BME280;60444;43.534;-5.674;2023-04-03T10:19:49;102054.78;;;13.92;85.27
72438;BME280;60444;43.534;-5.674;2023-04-03T10:25:23;102048.75;;;14.06;92.61
72438;BME280;60444;43.534;-5.674;2023-04-03T10:28:00;102053.38;;;14.04;87.71
72438;BME280;60444;43.534;-5.674;2023-04-03T10:30:44;102039.56;;;14.08;93.43
72438;BME280;60444;43.534;-5.674;2023-04-03T10:37:04;102051.00;;;14.16;94.47
72438;BME280;60444;43.534;-5.674;2023-04-03T10:39:23;102045.56;;;14.16;91.96
72438;BME280;60444;43.534;-5.674;2023-04-03T10:42:08;102040.94;;;14.18;95.93
72438;BME280;60444;43.534;-5.674;2023-04-03T10:50:00;102025.56;;;14.17;94.18
72438;BME280;60444;43.534;-5.674;2023-04-03T10:57:49;101998.63;;;14.11;94.68
72438;BME280;60444;43.534;-5.674;2023-04-03T11:00:18;102002.44;;;14.07;95.91
72438;BME280;60444;43.534;-5.674;2023-04-03T11:02:48;102011.13;;;14.15;97.62
72438;BME280;60444;43.534;-5.674;2023-04-03T11:08:13;101991.28;;;14.13;99.56
72438;BME280;60444;43.534;-5.674;2023-04-03T11:10:44;101976.47;;;14.20;100.00
72438;BME280;60444;43.534;-5.674;2023-04-03T11:16:26;101997.00;;;14.07;97.11
72438;BME280;60444;43.534;-5.674;2023-04-03T11:19:22;101984.97;;;14.13;99.97
72438;BME280;60444;43.534;-5.674;2023-04-03T11:22:06;101983.91;;;14.15;98.23
72438;BME280;60444;43.534;-5.674;2023-04-03T11:24:36;101972.03;;;14.18;99.50
72438;BME280;60444;43.534;-5.674;2023-04-03T11:27:05;101964.19;;;14.10;97.82
72438;BME280;60444;43.534;-5.674;2023-04-03T11:29:39;101954.81;;;13.97;96.66
72438;BME280;60444;43.534;-5.674;2023-04-03T11:34:51;101947.13;;;14.07;99.19
72438;BME280;60444;43.534;-5.674;2023-04-03T11:39:54;101935.91;;;14.14;100.00
72438;BME280;60444;43.534;-5.674;2023-04-03T11:47:54;101934.81;;;14.18;100.00
72438;BME280;60444;43.534;-5.674;2023-04-03T11:50:42;101931.28;;;14.16;98.82
72438;BME280;60444;43.534;-5.674;2023-04-03T12:16:10;101904.56;;;14.24;100.00
72438;BME280;60444;43.534;-5.674;2023-04-03T12:29:23;101884.66;;;14.24;99.17
72438;BME280;60444;43.534;-5.674;2023-04-03T12:35:09;101881.47;;;14.34;99.02
72438;BME280;60444;43.534;-5.674;2023-04-03T12:40:37;101867.03;;;14.32;100.00
72438;BME280;60444;43.534;-5.674;2023-04-03T12:48:48;101849.97;;;14.29;94.59
72438;BME280;60444;43.534;-5.674;2023-04-03T12:51:19;101847.44;;;14.24;95.70
72438;BME280;60444;43.534;-5.674;2023-04-03T12:53:45;101863.34;;;14.33;98.29
72438;BME280;60444;43.534;-5.674;2023-04-03T12:56:24;101842.78;;;14.28;94.80
72438;BME280;60444;43.534;-5.674;2023-04-03T12:58:52;101852.78;;;14.27;95.65
72438;BME280;60444;43.534;-5.674;2023-04-03T13:01:22;101834.53;;;14.29;97.61
72438;BME280;60444;43.534;-5.674;2023-04-03T13:03:51;101813.63;;;14.30;97.35
72438;BME280;60444;43.534;-5.674;2023-04-03T13:06:32;101841.81;;;14.29;98.45
72438;BME280;60444;43.534;-5.674;2023-04-03T13:09:00;101829.09;;;14.29;98.22
72438;BME280;60444;43.534;-5.674;2023-04-03T13:11:36;101797.72;;;14.21;97.76
72438;BME280;60444;43.534;-5.674;2023-04-03T13:14:05;101829.75;;;14.34;100.00
72438;BME280;60444;43.534;-5.674;2023-04-03T13:16:40;101826.06;;;14.35;97.84
72438;BME280;60444;43.534;-5.674;2023-04-03T13:19:14;101826.88;;;14.37;99.65
72438;BME280;60444;43.534;-5.674;2023-04-03T13:21:41;101811.34;;;14.39;98.44
72438;BME280;60444;43.534;-5.674;2023-04-03T13:24:08;101809.72;;;14.35;95.73
72438;BME280;60444;43.534;-5.674;2023-04-03T13:26:34;101813.25;;;14.37;96.49
72438;BME280;60444;43.534;-5.674;2023-04-03T13:29:06;101812.44;;;14.35;96.87
72438;BME280;60444;43.534;-5.674;2023-04-03T13:31:35;101811.00;;;14.28;98.54
72438;BME280;60444;43.534;-5.674;2023-04-03T13:34:10;101778.94;;;14.35;98.57
72438;BME280;60444;43.534;-5.674;2023-04-03T13:36:55;101768.41;;;14.27;96.77
72438;BME280;60444;43.534;-5.674;2023-04-03T13:39:25;101777.59;;;14.43;99.59
72438;BME280;60444;43.534;-5.674;2023-04-03T13:41:54;101782.94;;;14.45;99.23
72438;BME280;60444;43.534;-5.674;2023-04-03T13:49:42;101783.94;;;14.44;97.43
72438;BME280;60444;43.534;-5.674;2023-04-03T13:54:52;101754.38;;;14.53;99.88
72438;BME280;60444;43.534;-5.674;2023-04-03T13:57:19;101751.25;;;14.44;98.35
72438;BME280;60444;43.534;-5.674;2023-04-03T13:59:45;101754.72;;;14.47;95.87
72438;BME280;60444;43.534;-5.674;2023-04-03T14:02:16;101768.06;;;14.52;94.79
72438;BME280;60444;43.534;-5.674;2023-04-03T14:07:15;101771.06;;;14.65;97.62
72438;BME280;60444;43.534;-5.674;2023-04-03T14:09:41;101749.28;;;14.65;97.80
72438;BME280;60444;43.534;-5.674;2023-04-03T14:12:35;101758.91;;;14.72;99.83
72438;BME280;60444;43.534;-5.674;2023-04-03T14:15:04;101761.16;;;14.81;97.13
72438;BME280;60444;43.534;-5.674;2023-04-03T14:17:30;101736.38;;;14.68;99.09
72438;BME280;60444;43.534;-5.674;2023-04-03T14:19:57;101748.41;;;14.81;97.60
72438;BME280;60444;43.534;-5.674;2023-04-03T14:22:29;101742.88;;;14.83;98.27
72438;BME280;60444;43.534;-5.674;2023-04-03T14:24:56;101756.28;;;14.87;96.93
72438;BME280;60444;43.534;-5.674;2023-04-03T14:27:28;101730.06;;;14.85;98.49
72438;BME280;60444;43.534;-5.674;2023-04-03T14:29:58;101740.03;;;14.86;96.77
72438;BME280;60444;43.534;-5.674;2023-04-03T14:32:24;101738.31;;;14.83;98.99
72438;BME280;60444;43.534;-5.674;2023-04-03T14:34:51;101701.09;;;14.84;97.76
72438;BME280;60444;43.534;-5.674;2023-04-03T14:37:19;101727.25;;;14.86;97.69
72438;BME280;60444;43.534;-5.674;2023-04-03T14:39:47;101711.25;;;14.80;98.54
72438;BME280;60444;43.534;-5.674;2023-04-03T14:42:18;101714.69;;;14.84;97.84